sensor_id;sensor_type;location;lat;lon;timestamp;P1;durP1;ratioP1;P2;durP2;ratioP2
35590;SDS011;30355;50.556;10.012;2024-01-15T00:07:59;9.68;;;4.53;;
35590;SDS011;30355;50.556;10.012;2024-01-15T00:18:01;9.18;;;3.75;;
35590;SDS011;30355;50.556;10.012;2024-01-15T00:28:03;14.35;;;4.30;;
35590;SDS011;30355;50.556;10.012;2024-01-15T00:38:08;7.53;;;3.50;;
35590;SDS011;30355;50.556;10.012;2024-01-15T00:48:10;10.45;;;4.03;;
35590;SDS011;30355;50.556;10.012;2024-01-15T00:58:13;10.15;;;3.40;;
35590;SDS011;30355;50.556;10.012;2024-01-15T01:08:15;6.22;;;2.63;;
35590;SDS011;30355;50.556;10.012;2024-01-15T01:18:17;8.05;;;2.42;;
35590;SDS011;30355;50.556;10.012;2024-01-15T01:28:19;6.70;;;3.17;;
35590;SDS011;30355;50.556;10.012;2024-01-15T01:38:21;6.88;;;2.50;;
35590;SDS011;30355;50.556;10.012;2024-01-15T01:48:23;7.00;;;2.47;;
35590;SDS011;30355;50.556;10.012;2024-01-15T01:58:27;5.95;;;2.60;;
35590;SDS011;30355;50.556;10.012;2024-01-15T02:08:30;9.27;;;3.92;;
35590;SDS011;30355;50.556;10.012;2024-01-15T02:18:42;5.35;;;2.20;;
35590;SDS011;30355;50.556;10.012;2024-01-15T02:28:46;5.45;;;2.58;;
35590;SDS011;30355;50.556;10.012;2024-01-15T02:38:49;5.35;;;2.47;;
35590;SDS011;30355;50.556;10.012;2024-01-15T02:48:51;2.70;;;1.35;;
35590;SDS011;30355;50.556;10.012;2024-01-15T02:58:53;3.58;;;1.73;;
35590;SDS011;30355;50.556;10.012;2024-01-15T03:08:55;3.22;;;1.83;;
35590;SDS011;30355;50.556;10.012;2024-01-15T03:18:57;5.28;;;2.13;;
35590;SDS011;30355;50.556;10.012;2024-01-15T03:28:59;2.88;;;1.77;;
35590;SDS011;30355;50.556;10.012;2024-01-15T03:39:01;5.28;;;1.73;;
35590;SDS011;30355;50.556;10.012;2024-01-15T03:49:03;3.30;;;1.55;;
35590;SDS011;30355;50.556;10.012;2024-01-15T03:59:05;3.42;;;1.40;;
35590;SDS011;30355;50.556;10.012;2024-01-15T04:09:07;5.60;;;2.05;;
35590;SDS011;30355;50.556;10.012;2024-01-15T04:19:09;4.15;;;1.80;;
35590;SDS011;30355;50.556;10.012;2024-01-15T04:29:11;3.53;;;1.70;;
35590;SDS011;30355;50.556;10.012;2024-01-15T04:39:13;3.45;;;2.20;;
35590;SDS011;30355;50.556;10.012;2024-01-15T04:49:16;3.38;;;1.52;;
35590;SDS011;30355;50.556;10.012;2024-01-15T04:59:18;5.00;;;2.70;;
35590;SDS011;30355;50.556;10.012;2024-01-15T05:09:20;5.45;;;2.25;;
35590;SDS011;30355;50.556;10.012;2024-01-15T05:19:22;4.45;;;1.65;;
35590;SDS011;30355;50.556;10.012;2024-01-15T05:29:24;3.00;;;1.35;;
35590;SDS011;30355;50.556;10.012;2024-01-15T05:39:26;3.75;;;2.10;;
35590;SDS011;30355;50.556;10.012;2024-01-15T05:49:28;4.68;;;2.78;;
35590;SDS011;30355;50.556;10.012;2024-01-15T05:59:30;3.90;;;1.95;;
35590;SDS011;30355;50.556;10.012;2024-01-15T06:09:35;6.32;;;2.30;;
35590;SDS011;30355;50.556;10.012;2024-01-15T06:19:37;3.72;;;1.77;;
35590;SDS011;30355;50.556;10.012;2024-01-15T06:29:44;4.80;;;2.42;;
35590;SDS011;30355;50.556;10.012;2024-01-15T06:39:51;5.32;;;2.58;;
35590;SDS011;30355;50.556;10.012;2024-01-15T06:49:53;4.05;;;2.85;;
35590;SDS011;30355;50.556;10.012;2024-01-15T06:59:56;5.70;;;2.20;;
35590;SDS011;30355;50.556;10.012;2024-01-15T07:09:59;6.03;;;1.98;;
35590;SDS011;30355;50.556;10.012;2024-01-15T07:20:01;5.15;;;1.75;;
35590;SDS011;30355;50.556;10.012;2024-01-15T07:30:04;3.95;;;2.17;;
35590;SDS011;30355;50.556;10.012;2024-01-15T07:40:08;5.03;;;1.73;;
35590;SDS011;30355;50.556;10.012;2024-01-15T07:50:12;4.55;;;2.33;;
35590;SDS011;30355;50.556;10.012;2024-01-15T08:00:14;3.42;;;2.13;;
35590;SDS011;30355;50.556;10.012;2024-01-15T08:10:16;3.85;;;1.85;;
35590;SDS011;30355;50.556;10.012;2024-01-15T08:20:18;4.50;;;2.33;;
35590;SDS011;30355;50.556;10.012;2024-01-15T08:30:21;4.53;;;2.10;;
35590;SDS011;30355;50.556;10.012;2024-01-15T08:40:26;7.32;;;3.33;;
35590;SDS011;30355;50.556;10.012;2024-01-15T08:50:28;5.15;;;2.58;;
35590;SDS011;30355;50.556;10.012;2024-01-15T09:00:31;6.78;;;2.78;;
35590;SDS011;30355;50.556;10.012;2024-01-15T09:10:33;5.50;;;2.00;;
35590;SDS011;30355;50.556;10.012;2024-01-15T09:20:36;5.43;;;2.70;;
35590;SDS011;30355;50.556;10.012;2024-01-15T09:30:39;6.80;;;3.15;;
35590;SDS011;30355;50.556;10.012;2024-01-15T09:40:42;7.63;;;3.50;;
35590;SDS011;30355;50.556;10.012;2024-01-15T09:50:47;4.13;;;2.10;;
35590;SDS011;30355;50.556;10.012;2024-01-15T10:00:49;4.95;;;2.20;;
35590;SDS011;30355;50.556;10.012;2024-01-15T10:10:53;5.43;;;2.83;;
35590;SDS011;30355;50.556;10.012;2024-01-15T10:20:56;4.63;;;2.60;;
35590;SDS011;30355;50.556;10.012;2024-01-15T10:30:59;5.72;;;2.00;;
35590;SDS011;30355;50.556;10.012;2024-01-15T10:41:02;7.70;;;3.08;;
35590;SDS011;30355;50.556;10.012;2024-01-15T10:51:04;4.10;;;2.28;;
35590;SDS011;30355;50.556;10.012;2024-01-15T11:01:12;8.93;;;3.08;;
35590;SDS011;30355;50.556;10.012;2024-01-15T11:11:15;5.47;;;2.63;;
35590;SDS011;30355;50.556;10.012;2024-01-15T11:31:20;5.18;;;2.50;;
35590;SDS011;30355;50.556;10.012;2024-01-15T11:41:28;5.72;;;2.83;;
35590;SDS011;30355;50.556;10.012;2024-01-15T11:51:30;6.45;;;2.75;;
35590;SDS011;30355;50.556;10.012;2024-01-15T12:01:32;9.68;;;4.47;;
35590;SDS011;30355;50.556;10.012;2024-01-15T12:11:35;6.90;;;3.25;;
35590;SDS011;30355;50.556;10.012;2024-01-15T12:21:44;8.20;;;3.53;;
35590;SDS011;30355;50.556;10.012;2024-01-15T12:31:47;3.92;;;2.08;;
35590;SDS011;30355;50.556;10.012;2024-01-15T12:41:50;5.07;;;2.65;;
35590;SDS011;30355;50.556;10.012;2024-01-15T12:51:54;4.38;;;2.17;;
35590;SDS011;30355;50.556;10.012;2024-01-15T13:01:59;6.47;;;2.45;;
35590;SDS011;30355;50.556;10.012;2024-01-15T13:12:01;5.93;;;2.63;;
35590;SDS011;30355;50.556;10.012;2024-01-15T13:22:04;4.65;;;2.40;;
35590;SDS011;30355;50.556;10.012;2024-01-15T13:32:08;4.43;;;2.40;;
35590;SDS011;30355;50.556;10.012;2024-01-15T13:42:13;6.63;;;2.92;;
35590;SDS011;30355;50.556;10.012;2024-01-15T13:52:16;3.55;;;1.70;;
35590;SDS011;30355;50.556;10.012;2024-01-15T14:02:19;4.32;;;2.00;;
35590;SDS011;30355;50.556;10.012;2024-01-15T14:12:24;5.68;;;2.15;;
35590;SDS011;30355;50.556;10.012;2024-01-15T14:22:28;3.60;;;1.98;;
35590;SDS011;30355;50.556;10.012;2024-01-15T14:32:30;3.65;;;2.08;;
35590;SDS011;30355;50.556;10.012;2024-01-15T14:42:32;3.95;;;1.70;;
35590;SDS011;30355;50.556;10.012;2024-01-15T14:52:34;4.85;;;2.15;;
35590;SDS011;30355;50.556;10.012;2024-01-15T15:02:36;3.33;;;1.40;;
35590;SDS011;30355;50.556;10.012;2024-01-15T15:12:39;1.65;;;1.08;;
35590;SDS011;30355;50.556;10.012;2024-01-15T15:22:41;1.63;;;0.90;;
35590;SDS011;30355;50.556;10.012;2024-01-15T15:32:44;2.20;;;1.20;;
35590;SDS011;30355;50.556;10.012;2024-01-15T15:42:46;2.45;;;1.45;;
35590;SDS011;30355;50.556;10.012;2024-01-15T15:52:48;1.75;;;0.65;;
35590;SDS011;30355;50.556;10.012;2024-01-15T16:02:50;2.85;;;1.60;;
35590;SDS011;30355;50.556;10.012;2024-01-15T16:12:52;1.40;;;0.80;;
35590;SDS011;30355;50.556;10.012;2024-01-15T16:22:54;1.70;;;1.52;;
35590;SDS011;30355;50.556;10.012;2024-01-15T16:33:16;2.00;;;1.02;;
35590;SDS011;30355;50.556;10.012;2024-01-15T16:43:19;1.52;;;0.90;;
35590;SDS011;30355;50.556;10.012;2024-01-15T16:53:21;0.80;;;0.60;;
35590;SDS011;30355;50.556;10.012;2024-01-15T17:03:23;2.45;;;0.90;;
35590;SDS011;30355;50.556;10.012;2024-01-15T17:13:25;2.33;;;1.13;;
35590;SDS011;30355;50.556;10.012;2024-01-15T17:23:28;4.30;;;1.52;;
35590;SDS011;30355;50.556;10.012;2024-01-15T17:33:30;1.02;;;0.70;;
35590;SDS011;30355;50.556;10.012;2024-01-15T17:43:32;2.13;;;1.17;;
35590;SDS011;30355;50.556;10.012;2024-01-15T17:53:37;1.38;;;0.77;;
35590;SDS011;30355;50.556;10.012;2024-01-15T18:03:39;2.40;;;0.95;;
35590;SDS011;30355;50.556;10.012;2024-01-15T18:13:41;2.05;;;1.27;;
35590;SDS011;30355;50.556;10.012;2024-01-15T18:23:43;2.10;;;1.60;;
35590;SDS011;30355;50.556;10.012;2024-01-15T18:33:45;2.97;;;1.40;;
35590;SDS011;30355;50.556;10.012;2024-01-15T18:43:48;1.98;;;1.10;;
35590;SDS011;30355;50.556;10.012;2024-01-15T18:53:51;1.80;;;1.25;;
35590;SDS011;30355;50.556;10.012;2024-01-15T19:03:53;1.35;;;1.20;;
35590;SDS011;30355;50.556;10.012;2024-01-15T19:13:55;2.00;;;1.20;;
35590;SDS011;30355;50.556;10.012;2024-01-15T19:23:57;0.98;;;0.93;;
35590;SDS011;30355;50.556;10.012;2024-01-15T19:33:59;1.40;;;0.47;;
35590;SDS011;30355;50.556;10.012;2024-01-15T19:44:01;1.65;;;0.85;;
35590;SDS011;30355;50.556;10.012;2024-01-15T19:54:03;2.65;;;0.88;;
35590;SDS011;30355;50.556;10.012;2024-01-15T20:04:05;3.28;;;1.20;;
35590;SDS011;30355;50.556;10.012;2024-01-15T20:14:07;2.03;;;1.05;;
35590;SDS011;30355;50.556;10.012;2024-01-15T20:24:10;4.40;;;0.88;;
35590;SDS011;30355;50.556;10.012;2024-01-15T20:34:12;3.10;;;0.75;;
35590;SDS011;30355;50.556;10.012;2024-01-15T20:44:14;2.60;;;1.05;;
35590;SDS011;30355;50.556;10.012;2024-01-15T20:54:16;2.60;;;1.15;;
35590;SDS011;30355;50.556;10.012;2024-01-15T21:04:18;1.83;;;1.00;;
35590;SDS011;30355;50.556;10.012;2024-01-15T21:14:21;1.10;;;0.90;;
35590;SDS011;30355;50.556;10.012;2024-01-15T21:24:23;2.45;;;0.70;;
35590;SDS011;30355;50.556;10.012;2024-01-15T21:34:28;0.95;;;0.75;;
35590;SDS011;30355;50.556;10.012;2024-01-15T21:44:30;1.48;;;0.73;;
35590;SDS011;30355;50.556;10.012;2024-01-15T21:54:32;1.17;;;0.88;;
35590;SDS011;30355;50.556;10.012;2024-01-15T22:04:35;1.65;;;0.80;;
35590;SDS011;30355;50.556;10.012;2024-01-15T22:14:38;3.58;;;1.30;;
35590;SDS011;30355;50.556;10.012;2024-01-15T22:24:40;3.38;;;1.38;;
35590;SDS011;30355;50.556;10.012;2024-01-15T22:34:42;2.40;;;1.45;;
35590;SDS011;30355;50.556;10.012;2024-01-15T22:44:44;1.77;;;1.05;;
35590;SDS011;30355;50.556;10.012;2024-01-15T22:54:47;2.67;;;0.90;;
35590;SDS011;30355;50.556;10.012;2024-01-15T23:04:50;1.20;;;0.80;;
35590;SDS011;30355;50.556;10.012;2024-01-15T23:14:52;2.05;;;1.30;;
35590;SDS011;30355;50.556;10.012;2024-01-15T23:24:54;1.95;;;1.45;;
35590;SDS011;30355;50.556;10.012;2024-01-15T23:34:56;2.05;;;1.20;;
35590;SDS011;30355;50.556;10.012;2024-01-15T23:44:59;0.68;;;0.47;;
35590;SDS011;30355;50.556;10.012;2024-01-15T23:55:01;1.48;;;0.80;;
